sensor_id;sensor_type;location;lat;lon;timestamp;P1;durP1;ratioP1;P2;durP2;ratioP2
41309;SDS011;27057;51.438;-0.010;2023-03-11T00:00:33;28.75;;;12.43;;
41309;SDS011;27057;51.438;-0.010;2023-03-11T00:03:03;31.25;;;11.35;;
41309;SDS011;27057;51.438;-0.010;2023-03-11T00:05:34;30.50;;;10.77;;
41309;SDS011;27057;51.438;-0.010;2023-03-11T00:08:05;27.80;;;10.35;;
41309;SDS011;27057;51.438;-0.010;2023-03-11T00:10:35;19.55;;;9.23;;
41309;SDS011;27057;51.438;-0.010;2023-03-11T00:13:04;28.00;;;9.90;;
41309;SDS011;27057;51.438;-0.010;2023-03-11T00:15:34;22.85;;;9.52;;
41309;SDS011;27057;51.438;-0.010;2023-03-11T00:18:03;34.72;;;11.45;;
41309;SDS011;27057;51.438;-0.010;2023-03-11T00:20:36;26.80;;;10.55;;
41309;SDS011;27057;51.438;-0.010;2023-03-11T00:23:06;23.98;;;9.20;;
41309;SDS011;27057;51.438;-0.010;2023-03-11T00:25:35;28.58;;;10.40;;
41309;SDS011;27057;51.438;-0.010;2023-03-11T00:28:04;35.25;;;10.98;;
41309;SDS011;27057;51.438;-0.010;2023-03-11T00:30:40;21.33;;;8.70;;
41309;SDS011;27057;51.438;-0.010;2023-03-11T00:33:10;38.70;;;9.82;;
41309;SDS011;27057;51.438;-0.010;2023-03-11T00:35:39;33.28;;;9.55;;
41309;SDS011;27057;51.438;-0.010;2023-03-11T00:38:09;23.63;;;9.52;;
41309;SDS011;27057;51.438;-0.010;2023-03-11T00:40:42;25.83;;;8.20;;
41309;SDS011;27057;51.438;-0.010;2023-03-11T00:43:11;21.25;;;9.70;;
41309;SDS011;27057;51.438;-0.010;2023-03-11T00:45:39;27.35;;;10.02;;
41309;SDS011;27057;51.438;-0.010;2023-03-11T00:48:06;32.00;;;11.13;;
41309;SDS011;27057;51.438;-0.010;2023-03-11T00:50:35;23.60;;;8.95;;
41309;SDS011;27057;51.438;-0.010;2023-03-11T00:53:03;22.13;;;9.55;;
41309;SDS011;27057;51.438;-0.010;2023-03-11T00:55:32;42.15;;;11.27;;
41309;SDS011;27057;51.438;-0.010;2023-03-11T00:58:04;33.63;;;10.23;;
41309;SDS011;27057;51.438;-0.010;2023-03-11T01:00:42;26.15;;;9.93;;
41309;SDS011;27057;51.438;-0.010;2023-03-11T01:03:10;31.92;;;11.57;;
41309;SDS011;27057;51.438;-0.010;2023-03-11T01:05:37;22.30;;;10.50;;
41309;SDS011;27057;51.438;-0.010;2023-03-11T01:08:05;37.40;;;11.68;;
41309;SDS011;27057;51.438;-0.010;2023-03-11T01:10:33;21.02;;;9.68;;
41309;SDS011;27057;51.438;-0.010;2023-03-11T01:13:01;31.55;;;10.43;;
41309;SDS011;27057;51.438;-0.010;2023-03-11T01:15:31;22.70;;;9.80;;
41309;SDS011;27057;51.438;-0.010;2023-03-11T01:18:01;30.15;;;11.05;;
41309;SDS011;27057;51.438;-0.010;2023-03-11T01:20:32;27.38;;;9.13;;
41309;SDS011;27057;51.438;-0.010;2023-03-11T01:23:00;26.55;;;10.65;;
41309;SDS011;27057;51.438;-0.010;2023-03-11T01:25:27;27.02;;;9.63;;
41309;SDS011;27057;51.438;-0.010;2023-03-11T01:27:57;27.63;;;9.90;;
41309;SDS011;27057;51.438;-0.010;2023-03-11T01:30:25;26.40;;;10.10;;
41309;SDS011;27057;51.438;-0.010;2023-03-11T01:32:55;19.77;;;8.35;;
41309;SDS011;27057;51.438;-0.010;2023-03-11T01:35:24;23.00;;;9.13;;
41309;SDS011;27057;51.438;-0.010;2023-03-11T01:37:52;23.15;;;8.40;;
41309;SDS011;27057;51.438;-0.010;2023-03-11T01:40:23;23.48;;;8.95;;
41309;SDS011;27057;51.438;-0.010;2023-03-11T01:42:52;19.23;;;8.35;;
41309;SDS011;27057;51.438;-0.010;2023-03-11T01:48:08;25.65;;;8.10;;
41309;SDS011;27057;51.438;-0.010;2023-03-11T01:50:41;26.90;;;10.10;;
41309;SDS011;27057;51.438;-0.010;2023-03-11T01:53:12;29.98;;;12.50;;
41309;SDS011;27057;51.438;-0.010;2023-03-11T01:55:43;34.28;;;11.90;;
41309;SDS011;27057;51.438;-0.010;2023-03-11T01:58:15;33.42;;;12.57;;
41309;SDS011;27057;51.438;-0.010;2023-03-11T02:00:46;27.20;;;12.13;;
41309;SDS011;27057;51.438;-0.010;2023-03-11T02:03:25;31.13;;;12.35;;
41309;SDS011;27057;51.438;-0.010;2023-03-11T02:05:55;29.00;;;13.43;;
41309;SDS011;27057;51.438;-0.010;2023-03-11T02:08:23;33.53;;;11.60;;
41309;SDS011;27057;51.438;-0.010;2023-03-11T02:10:51;25.90;;;12.10;;
41309;SDS011;27057;51.438;-0.010;2023-03-11T02:13:20;28.38;;;11.88;;
41309;SDS011;27057;51.438;-0.010;2023-03-11T02:15:49;40.17;;;12.82;;
41309;SDS011;27057;51.438;-0.010;2023-03-11T02:18:17;31.85;;;11.63;;
41309;SDS011;27057;51.438;-0.010;2023-03-11T02:23:34;27.38;;;11.73;;
41309;SDS011;27057;51.438;-0.010;2023-03-11T02:26:34;24.85;;;11.52;;
41309;SDS011;27057;51.438;-0.010;2023-03-11T02:29:18;25.40;;;11.25;;
41309;SDS011;27057;51.438;-0.010;2023-03-11T02:31:47;34.92;;;10.68;;
41309;SDS011;27057;51.438;-0.010;2023-03-11T02:34:20;30.95;;;11.07;;
41309;SDS011;27057;51.438;-0.010;2023-03-11T02:36:52;35.42;;;10.68;;
41309;SDS011;27057;51.438;-0.010;2023-03-11T02:39:30;38.83;;;10.68;;
41309;SDS011;27057;51.438;-0.010;2023-03-11T02:41:59;32.97;;;10.45;;
41309;SDS011;27057;51.438;-0.010;2023-03-11T02:44:31;26.45;;;10.75;;
41309;SDS011;27057;51.438;-0.010;2023-03-11T02:46:59;29.73;;;10.07;;
41309;SDS011;27057;51.438;-0.010;2023-03-11T02:49:28;26.58;;;10.80;;
41309;SDS011;27057;51.438;-0.010;2023-03-11T02:51:56;27.58;;;11.30;;
41309;SDS011;27057;51.438;-0.010;2023-03-11T02:54:23;25.05;;;10.68;;
41309;SDS011;27057;51.438;-0.010;2023-03-11T02:56:52;36.83;;;9.68;;
41309;SDS011;27057;51.438;-0.010;2023-03-11T02:59:19;21.50;;;10.10;;
41309;SDS011;27057;51.438;-0.010;2023-03-11T03:01:47;21.95;;;9.40;;
41309;SDS011;27057;51.438;-0.010;2023-03-11T03:04:15;78.50;;;31.65;;
41309;SDS011;27057;51.438;-0.010;2023-03-11T03:06:43;43.25;;;17.67;;
41309;SDS011;27057;51.438;-0.010;2023-03-11T03:09:10;21.55;;;10.38;;
41309;SDS011;27057;51.438;-0.010;2023-03-11T03:11:37;24.13;;;9.68;;
41309;SDS011;27057;51.438;-0.010;2023-03-11T03:14:05;23.85;;;9.98;;
41309;SDS011;27057;51.438;-0.010;2023-03-11T03:16:32;23.92;;;10.55;;
41309;SDS011;27057;51.438;-0.010;2023-03-11T03:19:00;31.00;;;9.25;;
41309;SDS011;27057;51.438;-0.010;2023-03-11T03:21:27;24.02;;;10.50;;
41309;SDS011;27057;51.438;-0.010;2023-03-11T03:23:55;20.88;;;8.57;;
41309;SDS011;27057;51.438;-0.010;2023-03-11T03:26:22;28.08;;;9.82;;
41309;SDS011;27057;51.438;-0.010;2023-03-11T03:28:53;23.90;;;9.73;;
41309;SDS011;27057;51.438;-0.010;2023-03-11T03:31:20;28.92;;;9.38;;
41309;SDS011;27057;51.438;-0.010;2023-03-11T03:33:48;22.08;;;10.02;;
41309;SDS011;27057;51.438;-0.010;2023-03-11T03:36:15;26.77;;;10.88;;
41309;SDS011;27057;51.438;-0.010;2023-03-11T03:38:53;22.48;;;8.82;;
41309;SDS011;27057;51.438;-0.010;2023-03-11T03:41:28;35.67;;;10.02;;
41309;SDS011;27057;51.438;-0.010;2023-03-11T03:43:56;40.63;;;10.57;;
41309;SDS011;27057;51.438;-0.010;2023-03-11T03:46:24;32.90;;;10.70;;
41309;SDS011;27057;51.438;-0.010;2023-03-11T03:48:55;29.15;;;11.52;;
41309;SDS011;27057;51.438;-0.010;2023-03-11T03:51:32;25.77;;;10.43;;
41309;SDS011;27057;51.438;-0.010;2023-03-11T03:54:06;30.52;;;10.27;;
41309;SDS011;27057;51.438;-0.010;2023-03-11T03:56:34;30.75;;;11.45;;
41309;SDS011;27057;51.438;-0.010;2023-03-11T03:59:02;26.60;;;10.68;;
41309;SDS011;27057;51.438;-0.010;2023-03-11T04:01:36;67.50;;;25.98;;
41309;SDS011;27057;51.438;-0.010;2023-03-11T04:04:03;31.77;;;14.32;;
41309;SDS011;27057;51.438;-0.010;2023-03-11T04:06:31;31.10;;;11.73;;
41309;SDS011;27057;51.438;-0.010;2023-03-11T04:09:03;25.20;;;10.23;;
41309;SDS011;27057;51.438;-0.010;2023-03-11T04:11:33;30.15;;;12.75;;
41309;SDS011;27057;51.438;-0.010;2023-03-11T04:14:03;34.78;;;11.70;;
41309;SDS011;27057;51.438;-0.010;2023-03-11T04:16:34;29.98;;;10.52;;
41309;SDS011;27057;51.438;-0.010;2023-03-11T04:19:06;32.08;;;10.35;;
41309;SDS011;27057;51.438;-0.010;2023-03-11T04:21:34;39.67;;;11.20;;
41309;SDS011;27057;51.438;-0.010;2023-03-11T04:24:03;26.08;;;10.48;;
41309;SDS011;27057;51.438;-0.010;2023-03-11T04:26:34;25.45;;;10.40;;
41309;SDS011;27057;51.438;-0.010;2023-03-11T04:29:02;29.55;;;10.90;;
41309;SDS011;27057;51.438;-0.010;2023-03-11T04:31:35;20.38;;;10.40;;
41309;SDS011;27057;51.438;-0.010;2023-03-11T04:34:05;28.00;;;11.68;;
41309;SDS011;27057;51.438;-0.010;2023-03-11T04:36:35;29.92;;;9.93;;
41309;SDS011;27057;51.438;-0.010;2023-03-11T04:39:03;33.38;;;10.43;;
41309;SDS011;27057;51.438;-0.010;2023-03-11T04:41:35;24.45;;;9.82;;
41309;SDS011;27057;51.438;-0.010;2023-03-11T04:44:04;23.60;;;8.85;;
41309;SDS011;27057;51.438;-0.010;2023-03-11T04:46:31;21.48;;;9.43;;
41309;SDS011;27057;51.438;-0.010;2023-03-11T04:49:00;36.72;;;11.05;;
41309;SDS011;27057;51.438;-0.010;2023-03-11T04:51:28;20.83;;;10.20;;
41309;SDS011;27057;51.438;-0.010;2023-03-11T04:53:55;24.45;;;11.05;;
41309;SDS011;27057;51.438;-0.010;2023-03-11T04:56:24;31.73;;;10.52;;
41309;SDS011;27057;51.438;-0.010;2023-03-11T04:58:51;23.35;;;10.07;;
41309;SDS011;27057;51.438;-0.010;2023-03-11T05:01:20;26.60;;;10.25;;
41309;SDS011;27057;51.438;-0.010;2023-03-11T05:03:49;34.20;;;12.52;;
41309;SDS011;27057;51.438;-0.010;2023-03-11T05:06:16;36.63;;;11.82;;
41309;SDS011;27057;51.438;-0.010;2023-03-11T05:08:44;28.70;;;10.05;;
41309;SDS011;27057;51.438;-0.010;2023-03-11T05:11:12;20.98;;;9.63;;
41309;SDS011;27057;51.438;-0.010;2023-03-11T05:13:41;33.78;;;9.65;;
41309;SDS011;27057;51.438;-0.010;2023-03-11T05:16:09;27.23;;;10.73;;
41309;SDS011;27057;51.438;-0.010;2023-03-11T05:18:37;22.00;;;8.77;;
41309;SDS011;27057;51.438;-0.010;2023-03-11T05:21:05;28.95;;;9.57;;
41309;SDS011;27057;51.438;-0.010;2023-03-11T05:23:35;25.73;;;10.18;;
41309;SDS011;27057;51.438;-0.010;2023-03-11T05:26:02;26.55;;;10.70;;
41309;SDS011;27057;51.438;-0.010;2023-03-11T05:28:31;31.00;;;11.15;;
41309;SDS011;27057;51.438;-0.010;2023-03-11T05:30:59;20.00;;;9.77;;
41309;SDS011;27057;51.438;-0.010;2023-03-11T05:33:30;19.25;;;9.75;;
41309;SDS011;27057;51.438;-0.010;2023-03-11T05:36:03;21.13;;;9.63;;
41309;SDS011;27057;51.438;-0.010;2023-03-11T05:38:36;22.17;;;10.27;;
41309;SDS011;27057;51.438;-0.010;2023-03-11T05:41:04;21.67;;;10.60;;
41309;SDS011;27057;51.438;-0.010;2023-03-11T05:43:33;42.45;;;11.85;;
41309;SDS011;27057;51.438;-0.010;2023-03-11T05:46:00;23.02;;;10.43;;
41309;SDS011;27057;51.438;-0.010;2023-03-11T05:48:28;27.55;;;11.25;;
41309;SDS011;27057;51.438;-0.010;2023-03-11T05:50:56;39.08;;;12.93;;
41309;SDS011;27057;51.438;-0.010;2023-03-11T05:53:25;32.38;;;12.93;;
41309;SDS011;27057;51.438;-0.010;2023-03-11T05:55:57;23.17;;;11.93;;
41309;SDS011;27057;51.438;-0.010;2023-03-11T05:58:27;31.20;;;13.30;;
41309;SDS011;27057;51.438;-0.010;2023-03-11T06:00:55;34.25;;;12.75;;
41309;SDS011;27057;51.438;-0.010;2023-03-11T06:03:25;35.15;;;12.60;;
41309;SDS011;27057;51.438;-0.010;2023-03-11T06:05:52;49.92;;;12.82;;
41309;SDS011;27057;51.438;-0.010;2023-03-11T06:08:20;37.05;;;13.15;;
41309;SDS011;27057;51.438;-0.010;2023-03-11T06:10:48;34.40;;;11.80;;
41309;SDS011;27057;51.438;-0.010;2023-03-11T06:13:17;27.45;;;11.60;;
41309;SDS011;27057;51.438;-0.010;2023-03-11T06:15:48;33.45;;;11.43;;
41309;SDS011;27057;51.438;-0.010;2023-03-11T06:18:16;25.17;;;11.45;;
41309;SDS011;27057;51.438;-0.010;2023-03-11T06:20:44;35.58;;;12.85;;
41309;SDS011;27057;51.438;-0.010;2023-03-11T06:23:11;32.55;;;12.13;;
41309;SDS011;27057;51.438;-0.010;2023-03-11T06:25:39;29.23;;;12.43;;
41309;SDS011;27057;51.438;-0.010;2023-03-11T06:28:06;28.27;;;11.25;;
41309;SDS011;27057;51.438;-0.010;2023-03-11T06:30:34;31.00;;;13.30;;
41309;SDS011;27057;51.438;-0.010;2023-03-11T06:33:09;30.00;;;12.30;;
41309;SDS011;27057;51.438;-0.010;2023-03-11T06:35:37;27.02;;;12.23;;
41309;SDS011;27057;51.438;-0.010;2023-03-11T06:38:04;25.15;;;10.07;;
41309;SDS011;27057;51.438;-0.010;2023-03-11T06:40:31;32.22;;;10.02;;
41309;SDS011;27057;51.438;-0.010;2023-03-11T06:42:59;21.77;;;9.63;;
41309;SDS011;27057;51.438;-0.010;2023-03-11T06:45:30;27.65;;;10.13;;
41309;SDS011;27057;51.438;-0.010;2023-03-11T06:47:58;30.40;;;11.25;;
41309;SDS011;27057;51.438;-0.010;2023-03-11T06:50:26;23.52;;;10.93;;
41309;SDS011;27057;51.438;-0.010;2023-03-11T06:52:58;21.98;;;10.48;;
41309;SDS011;27057;51.438;-0.010;2023-03-11T06:55:26;22.95;;;8.80;;
41309;SDS011;27057;51.438;-0.010;2023-03-11T06:57:53;21.95;;;8.50;;
41309;SDS011;27057;51.438;-0.010;2023-03-11T07:00:20;21.27;;;8.65;;
41309;SDS011;27057;51.438;-0.010;2023-03-11T07:02:53;29.40;;;9.30;;
41309;SDS011;27057;51.438;-0.010;2023-03-11T07:05:21;24.70;;;9.10;;
41309;SDS011;27057;51.438;-0.010;2023-03-11T07:07:53;28.35;;;10.32;;
41309;SDS011;27057;51.438;-0.010;2023-03-11T07:10:23;30.05;;;10.07;;
41309;SDS011;27057;51.438;-0.010;2023-03-11T07:12:50;39.10;;;11.95;;
41309;SDS011;27057;51.438;-0.010;2023-03-11T07:15:18;24.88;;;10.52;;
41309;SDS011;27057;51.438;-0.010;2023-03-11T07:17:45;26.23;;;9.38;;
41309;SDS011;27057;51.438;-0.010;2023-03-11T07:20:13;22.42;;;8.35;;
41309;SDS011;27057;51.438;-0.010;2023-03-11T07:22:41;20.63;;;9.50;;
41309;SDS011;27057;51.438;-0.010;2023-03-11T07:25:08;27.10;;;8.90;;
41309;SDS011;27057;51.438;-0.010;2023-03-11T07:27:35;31.17;;;9.80;;
41309;SDS011;27057;51.438;-0.010;2023-03-11T07:30:03;37.78;;;8.88;;
41309;SDS011;27057;51.438;-0.010;2023-03-11T07:32:32;25.55;;;8.10;;
41309;SDS011;27057;51.438;-0.010;2023-03-11T07:34:59;21.17;;;7.68;;
41309;SDS011;27057;51.438;-0.010;2023-03-11T07:37:26;18.48;;;7.22;;
41309;SDS011;27057;51.438;-0.010;2023-03-11T07:39:54;16.65;;;6.70;;
41309;SDS011;27057;51.438;-0.010;2023-03-11T07:42:21;17.52;;;7.53;;
41309;SDS011;27057;51.438;-0.010;2023-03-11T07:44:49;22.40;;;6.57;;
41309;SDS011;27057;51.438;-0.010;2023-03-11T07:47:17;20.25;;;7.85;;
41309;SDS011;27057;51.438;-0.010;2023-03-11T07:49:45;20.30;;;7.72;;
41309;SDS011;27057;51.438;-0.010;2023-03-11T07:52:12;23.48;;;6.30;;
41309;SDS011;27057;51.438;-0.010;2023-03-11T07:54:40;15.68;;;6.90;;
41309;SDS011;27057;51.438;-0.010;2023-03-11T07:57:08;22.45;;;7.57;;
41309;SDS011;27057;51.438;-0.010;2023-03-11T07:59:42;18.90;;;7.57;;
41309;SDS011;27057;51.438;-0.010;2023-03-11T08:02:10;21.27;;;7.43;;
41309;SDS011;27057;51.438;-0.010;2023-03-11T08:04:39;22.63;;;8.15;;
41309;SDS011;27057;51.438;-0.010;2023-03-11T08:07:07;20.02;;;8.75;;
41309;SDS011;27057;51.438;-0.010;2023-03-11T08:09:34;19.77;;;8.80;;
41309;SDS011;27057;51.438;-0.010;2023-03-11T08:12:04;26.38;;;8.15;;
41309;SDS011;27057;51.438;-0.010;2023-03-11T08:14:31;14.90;;;7.97;;
41309;SDS011;27057;51.438;-0.010;2023-03-11T08:16:59;16.13;;;7.40;;
41309;SDS011;27057;51.438;-0.010;2023-03-11T08:19:26;20.05;;;7.50;;
41309;SDS011;27057;51.438;-0.010;2023-03-11T08:21:54;22.15;;;7.13;;
41309;SDS011;27057;51.438;-0.010;2023-03-11T08:24:21;23.10;;;7.75;;
41309;SDS011;27057;51.438;-0.010;2023-03-11T08:26:49;24.05;;;7.10;;
41309;SDS011;27057;51.438;-0.010;2023-03-11T08:29:16;19.50;;;7.18;;
41309;SDS011;27057;51.438;-0.010;2023-03-11T08:31:44;19.73;;;6.20;;
41309;SDS011;27057;51.438;-0.010;2023-03-11T08:34:12;15.95;;;6.40;;
41309;SDS011;27057;51.438;-0.010;2023-03-11T08:36:41;17.48;;;6.47;;
41309;SDS011;27057;51.438;-0.010;2023-03-11T08:39:11;17.23;;;6.22;;
41309;SDS011;27057;51.438;-0.010;2023-03-11T08:41:39;16.27;;;4.90;;
41309;SDS011;27057;51.438;-0.010;2023-03-11T08:44:09;19.85;;;5.80;;
41309;SDS011;27057;51.438;-0.010;2023-03-11T08:46:40;14.10;;;3.70;;
41309;SDS011;27057;51.438;-0.010;2023-03-11T08:49:08;18.17;;;4.13;;
41309;SDS011;27057;51.438;-0.010;2023-03-11T08:51:41;15.63;;;4.80;;
41309;SDS011;27057;51.438;-0.010;2023-03-11T08:54:09;7.30;;;2.70;;
41309;SDS011;27057;51.438;-0.010;2023-03-11T08:56:38;15.25;;;3.25;;
41309;SDS011;27057;51.438;-0.010;2023-03-11T08:59:05;16.38;;;3.67;;
41309;SDS011;27057;51.438;-0.010;2023-03-11T09:01:34;20.13;;;3.00;;
41309;SDS011;27057;51.438;-0.010;2023-03-11T09:04:02;14.35;;;3.65;;
41309;SDS011;27057;51.438;-0.010;2023-03-11T09:06:33;19.92;;;2.65;;
41309;SDS011;27057;51.438;-0.010;2023-03-11T09:09:00;12.30;;;2.90;;
41309;SDS011;27057;51.438;-0.010;2023-03-11T09:11:29;6.15;;;2.55;;
41309;SDS011;27057;51.438;-0.010;2023-03-11T09:13:58;20.52;;;4.05;;
41309;SDS011;27057;51.438;-0.010;2023-03-11T09:16:26;6.65;;;2.05;;
41309;SDS011;27057;51.438;-0.010;2023-03-11T09:18:53;13.93;;;3.35;;
41309;SDS011;27057;51.438;-0.010;2023-03-11T09:21:21;13.45;;;2.70;;
41309;SDS011;27057;51.438;-0.010;2023-03-11T09:23:48;13.27;;;2.58;;
41309;SDS011;27057;51.438;-0.010;2023-03-11T09:26:16;4.20;;;2.05;;
41309;SDS011;27057;51.438;-0.010;2023-03-11T09:28:43;14.93;;;2.85;;
41309;SDS011;27057;51.438;-0.010;2023-03-11T09:31:17;8.02;;;2.20;;
41309;SDS011;27057;51.438;-0.010;2023-03-11T09:33:45;18.63;;;2.50;;
41309;SDS011;27057;51.438;-0.010;2023-03-11T09:36:13;7.18;;;2.28;;
41309;SDS011;27057;51.438;-0.010;2023-03-11T09:38:43;12.15;;;2.67;;
41309;SDS011;27057;51.438;-0.010;2023-03-11T09:43:51;6.30;;;1.73;;
41309;SDS011;27057;51.438;-0.010;2023-03-11T09:46:44;12.50;;;2.20;;
41309;SDS011;27057;51.438;-0.010;2023-03-11T09:52:28;12.13;;;2.83;;
41309;SDS011;27057;51.438;-0.010;2023-03-11T09:54:59;13.50;;;2.67;;
41309;SDS011;27057;51.438;-0.010;2023-03-11T09:57:32;21.40;;;2.60;;
41309;SDS011;27057;51.438;-0.010;2023-03-11T10:00:03;9.20;;;2.40;;
41309;SDS011;27057;51.438;-0.010;2023-03-11T10:02:38;14.05;;;1.77;;
41309;SDS011;27057;51.438;-0.010;2023-03-11T10:05:08;18.23;;;1.95;;
41309;SDS011;27057;51.438;-0.010;2023-03-11T10:07:43;12.13;;;1.77;;
41309;SDS011;27057;51.438;-0.010;2023-03-11T10:10:17;6.20;;;1.35;;
41309;SDS011;27057;51.438;-0.010;2023-03-11T10:12:55;11.82;;;1.77;;
41309;SDS011;27057;51.438;-0.010;2023-03-11T10:16:11;7.10;;;1.27;;
41309;SDS011;27057;51.438;-0.010;2023-03-11T10:19:08;6.40;;;2.63;;
41309;SDS011;27057;51.438;-0.010;2023-03-11T10:21:51;12.68;;;1.40;;
41309;SDS011;27057;51.438;-0.010;2023-03-11T10:24:34;4.85;;;1.27;;
41309;SDS011;27057;51.438;-0.010;2023-03-11T10:27:16;14.95;;;1.58;;
41309;SDS011;27057;51.438;-0.010;2023-03-11T10:32:49;6.68;;;1.30;;
41309;SDS011;27057;51.438;-0.010;2023-03-11T10:35:20;9.85;;;1.58;;
41309;SDS011;27057;51.438;-0.010;2023-03-11T10:37:51;11.27;;;2.47;;
41309;SDS011;27057;51.438;-0.010;2023-03-11T10:40:22;7.25;;;1.60;;
41309;SDS011;27057;51.438;-0.010;2023-03-11T10:42:56;15.00;;;2.30;;
41309;SDS011;27057;51.438;-0.010;2023-03-11T10:45:30;13.13;;;1.70;;
41309;SDS011;27057;51.438;-0.010;2023-03-11T10:48:06;10.50;;;1.88;;
41309;SDS011;27057;51.438;-0.010;2023-03-11T10:50:36;9.90;;;2.35;;
41309;SDS011;27057;51.438;-0.010;2023-03-11T10:53:24;7.95;;;1.98;;
41309;SDS011;27057;51.438;-0.010;2023-03-11T10:55:52;10.88;;;1.77;;
41309;SDS011;27057;51.438;-0.010;2023-03-11T10:58:22;10.32;;;1.88;;
41309;SDS011;27057;51.438;-0.010;2023-03-11T11:01:15;4.78;;;0.90;;
41309;SDS011;27057;51.438;-0.010;2023-03-11T11:03:44;14.68;;;2.40;;
41309;SDS011;27057;51.438;-0.010;2023-03-11T11:08:48;4.10;;;1.65;;
41309;SDS011;27057;51.438;-0.010;2023-03-11T11:11:29;9.93;;;1.80;;
41309;SDS011;27057;51.438;-0.010;2023-03-11T11:13:58;7.28;;;1.92;;
41309;SDS011;27057;51.438;-0.010;2023-03-11T11:16:26;12.35;;;3.95;;
41309;SDS011;27057;51.438;-0.010;2023-03-11T11:21:32;6.93;;;1.58;;
41309;SDS011;27057;51.438;-0.010;2023-03-11T11:29:29;9.50;;;1.70;;
41309;SDS011;27057;51.438;-0.010;2023-03-11T11:32:09;12.02;;;1.60;;
41309;SDS011;27057;51.438;-0.010;2023-03-11T11:34:41;11.02;;;2.53;;
41309;SDS011;27057;51.438;-0.010;2023-03-11T11:37:10;6.97;;;2.08;;
41309;SDS011;27057;51.438;-0.010;2023-03-11T11:39:49;9.80;;;1.95;;
41309;SDS011;27057;51.438;-0.010;2023-03-11T11:42:22;5.00;;;1.30;;
41309;SDS011;27057;51.438;-0.010;2023-03-11T11:44:55;7.65;;;1.20;;
41309;SDS011;27057;51.438;-0.010;2023-03-11T11:47:32;23.00;;;4.22;;
41309;SDS011;27057;51.438;-0.010;2023-03-11T11:50:03;5.68;;;1.65;;
41309;SDS011;27057;51.438;-0.010;2023-03-11T11:52:38;10.38;;;2.35;;
41309;SDS011;27057;51.438;-0.010;2023-03-11T11:55:18;9.45;;;1.85;;
41309;SDS011;27057;51.438;-0.010;2023-03-11T11:57:46;13.90;;;2.70;;
41309;SDS011;27057;51.438;-0.010;2023-03-11T12:00:21;8.45;;;2.47;;
41309;SDS011;27057;51.438;-0.010;2023-03-11T12:02:55;9.43;;;3.05;;
41309;SDS011;27057;51.438;-0.010;2023-03-11T12:05:32;5.20;;;1.98;;
41309;SDS011;27057;51.438;-0.010;2023-03-11T12:11:14;8.57;;;1.83;;
41309;SDS011;27057;51.438;-0.010;2023-03-11T12:14:05;4.65;;;1.50;;
41309;SDS011;27057;51.438;-0.010;2023-03-11T12:16:49;4.88;;;1.33;;
41309;SDS011;27057;51.438;-0.010;2023-03-11T12:31:26;2.17;;;0.80;;
41309;SDS011;27057;51.438;-0.010;2023-03-11T12:34:08;12.13;;;1.30;;
41309;SDS011;27057;51.438;-0.010;2023-03-11T12:36:40;3.38;;;0.80;;
41309;SDS011;27057;51.438;-0.010;2023-03-11T12:39:35;11.55;;;1.48;;
41309;SDS011;27057;51.438;-0.010;2023-03-11T12:44:40;9.63;;;1.15;;
41309;SDS011;27057;51.438;-0.010;2023-03-11T12:49:55;7.55;;;1.77;;
41309;SDS011;27057;51.438;-0.010;2023-03-11T12:53:00;5.28;;;1.15;;
41309;SDS011;27057;51.438;-0.010;2023-03-11T12:55:32;26.35;;;4.88;;
41309;SDS011;27057;51.438;-0.010;2023-03-11T12:58:28;9.90;;;1.05;;
41309;SDS011;27057;51.438;-0.010;2023-03-11T13:01:16;2.20;;;0.82;;
41309;SDS011;27057;51.438;-0.010;2023-03-11T13:12:44;4.18;;;1.48;;
41309;SDS011;27057;51.438;-0.010;2023-03-11T13:20:56;1.52;;;0.70;;
41309;SDS011;27057;51.438;-0.010;2023-03-11T13:23:26;11.10;;;1.50;;
41309;SDS011;27057;51.438;-0.010;2023-03-11T13:33:50;7.43;;;1.30;;
41309;SDS011;27057;51.438;-0.010;2023-03-11T13:40:30;16.40;;;1.75;;
41309;SDS011;27057;51.438;-0.010;2023-03-11T13:43:23;6.80;;;1.13;;
41309;SDS011;27057;51.438;-0.010;2023-03-11T13:49:25;5.78;;;1.33;;
41309;SDS011;27057;51.438;-0.010;2023-03-11T13:52:31;8.05;;;1.63;;
41309;SDS011;27057;51.438;-0.010;2023-03-11T13:55:02;6.25;;;1.23;;
41309;SDS011;27057;51.438;-0.010;2023-03-11T13:57:36;8.60;;;1.10;;
41309;SDS011;27057;51.438;-0.010;2023-03-11T14:00:05;9.98;;;1.30;;
41309;SDS011;27057;51.438;-0.010;2023-03-11T14:02:49;9.68;;;1.48;;
41309;SDS011;27057;51.438;-0.010;2023-03-11T14:08:17;5.28;;;1.25;;
41309;SDS011;27057;51.438;-0.010;2023-03-11T14:13:46;9.00;;;1.10;;
41309;SDS011;27057;51.438;-0.010;2023-03-11T14:16:17;5.70;;;1.20;;
41309;SDS011;27057;51.438;-0.010;2023-03-11T14:19:16;6.78;;;1.48;;
41309;SDS011;27057;51.438;-0.010;2023-03-11T14:21:52;7.32;;;1.10;;
41309;SDS011;27057;51.438;-0.010;2023-03-11T14:24:46;7.20;;;1.40;;
41309;SDS011;27057;51.438;-0.010;2023-03-11T14:27:14;12.07;;;1.20;;
41309;SDS011;27057;51.438;-0.010;2023-03-11T14:30:41;5.57;;;1.10;;
41309;SDS011;27057;51.438;-0.010;2023-03-11T14:33:29;4.72;;;1.10;;
41309;SDS011;27057;51.438;-0.010;2023-03-11T14:36:23;8.50;;;1.40;;
41309;SDS011;27057;51.438;-0.010;2023-03-11T14:41:45;9.88;;;1.30;;
41309;SDS011;27057;51.438;-0.010;2023-03-11T14:44:33;11.57;;;1.48;;
41309;SDS011;27057;51.438;-0.010;2023-03-11T14:50:23;5.10;;;1.30;;
41309;SDS011;27057;51.438;-0.010;2023-03-11T14:56:04;10.60;;;1.95;;
41309;SDS011;27057;51.438;-0.010;2023-03-11T14:58:35;6.10;;;1.25;;
41309;SDS011;27057;51.438;-0.010;2023-03-11T15:01:23;2.55;;;0.80;;
41309;SDS011;27057;51.438;-0.010;2023-03-11T15:04:07;5.20;;;1.15;;
41309;SDS011;27057;51.438;-0.010;2023-03-11T15:07:07;1.17;;;0.77;;
41309;SDS011;27057;51.438;-0.010;2023-03-11T15:09:47;4.40;;;1.33;;
41309;SDS011;27057;51.438;-0.010;2023-03-11T15:12:30;9.10;;;1.80;;
41309;SDS011;27057;51.438;-0.010;2023-03-11T15:18:24;7.22;;;1.77;;
41309;SDS011;27057;51.438;-0.010;2023-03-11T15:21:18;3.22;;;1.45;;
41309;SDS011;27057;51.438;-0.010;2023-03-11T15:26:27;7.72;;;1.60;;
41309;SDS011;27057;51.438;-0.010;2023-03-11T15:29:00;3.72;;;0.70;;
41309;SDS011;27057;51.438;-0.010;2023-03-11T15:31:35;16.40;;;1.98;;
41309;SDS011;27057;51.438;-0.010;2023-03-11T15:42:12;8.98;;;2.08;;
41309;SDS011;27057;51.438;-0.010;2023-03-11T15:47:19;8.98;;;1.10;;
41309;SDS011;27057;51.438;-0.010;2023-03-11T15:49:48;11.15;;;2.10;;
41309;SDS011;27057;51.438;-0.010;2023-03-11T15:52:16;14.82;;;2.03;;
41309;SDS011;27057;51.438;-0.010;2023-03-11T15:54:45;3.53;;;1.25;;
41309;SDS011;27057;51.438;-0.010;2023-03-11T15:57:22;5.67;;;1.53;;
41309;SDS011;27057;51.438;-0.010;2023-03-11T15:59:53;5.10;;;1.70;;
41309;SDS011;27057;51.438;-0.010;2023-03-11T16:02:23;9.80;;;2.17;;
41309;SDS011;27057;51.438;-0.010;2023-03-11T16:04:53;17.95;;;1.90;;
41309;SDS011;27057;51.438;-0.010;2023-03-11T16:07:21;6.82;;;1.73;;
41309;SDS011;27057;51.438;-0.010;2023-03-11T16:10:06;2.85;;;1.25;;
41309;SDS011;27057;51.438;-0.010;2023-03-11T16:12:34;7.90;;;1.42;;
41309;SDS011;27057;51.438;-0.010;2023-03-11T16:15:03;1.08;;;0.88;;
41309;SDS011;27057;51.438;-0.010;2023-03-11T16:17:31;10.75;;;2.00;;
41309;SDS011;27057;51.438;-0.010;2023-03-11T16:20:15;5.30;;;1.45;;
41309;SDS011;27057;51.438;-0.010;2023-03-11T16:22:43;6.60;;;1.63;;
41309;SDS011;27057;51.438;-0.010;2023-03-11T16:25:17;6.95;;;1.70;;
41309;SDS011;27057;51.438;-0.010;2023-03-11T16:27:48;9.68;;;1.95;;
41309;SDS011;27057;51.438;-0.010;2023-03-11T16:30:17;7.85;;;2.40;;
41309;SDS011;27057;51.438;-0.010;2023-03-11T16:32:45;6.78;;;1.63;;
41309;SDS011;27057;51.438;-0.010;2023-03-11T16:35:13;7.18;;;1.45;;